Time;durP1;ratioP1;P1;durP2;ratioP2;P2;SDS_P1;SDS_P2;PMS_P1;PMS_P2;Temp;Humidity;BMP_temperature;BMP_pressure;BME280_temperature;BME280_humidity;BME280_pressure;Samples;Min_cycle;Max_cycle;Signal;HPM_P1;HPM_P2
2021/06/28 00:00:40;;;;;;;;;;;17.30;88.00;;;;;;5036616;28;19913;-59
2021/06/28 00:03:06;;;;;;;;;;;17.30;87.40;;;;;;5042318;28;19990;-62
2021/06/28 00:05:31;;;;;;;;;;;17.30;86.60;;;;;;5036570;28;20004;-62
2021/06/28 00:07:57;;;;;;;;;;;17.30;87.50;;;;;;5038770;28;20019;-62
2021/06/28 00:10:24;;;;;;;;;;;17.10;87.50;;;;;;5034154;28;20392;-61
2021/06/28 00:12:50;;;;;;;;;;;17.10;88.40;;;;;;5037626;28;19932;-61
2021/06/28 00:15:17;;;;;;;;;;;17.00;88.20;;;;;;5034020;28;19920;-61
2021/06/28 00:17:44;;;;;;;;;;;17.00;88.50;;;;;;5041022;28;19920;-61
2021/06/28 00:20:10;;;;;;;;;;;17.00;89.00;;;;;;5037816;28;19948;-61
2021/06/28 00:22:35;;;;;;;;;;;16.90;88.30;;;;;;5035144;28;20779;-62
2021/06/28 00:25:04;;;;;;;;;;;16.90;88.50;;;;;;5037356;28;19949;-62
2021/06/28 00:27:30;;;;;;;;;;;16.90;88.90;;;;;;5040591;28;20344;-62
2021/06/28 00:29:55;;;;;;;;;;;16.80;89.30;;;;;;5037164;28;19924;-61
2021/06/28 00:32:21;;;;;;;;;;;16.70;89.40;;;;;;5037512;28;20012;-61
2021/06/28 00:34:46;;;;;;;;;;;16.70;88.90;;;;;;5050046;28;20392;-60
2021/06/28 00:37:12;;;;;;;;;;;16.70;89.20;;;;;;5034306;28;19992;-60
2021/06/28 00:39:37;;;;;;;;;;;16.70;89.40;;;;;;5040332;28;20048;-60
2021/06/28 00:42:03;;;;;;;;;;;16.60;89.80;;;;;;5042575;28;19979;-61
2021/06/28 00:44:28;;;;;;;;;;;16.60;89.50;;;;;;5035517;28;20452;-62
2021/06/28 00:46:54;;;;;;;;;;;16.60;89.90;;;;;;5038001;28;19923;-61
2021/06/28 00:49:19;;;;;;;;;;;16.50;90.00;;;;;;5041322;28;20540;-61
2021/06/28 00:51:45;;;;;;;;;;;16.50;90.50;;;;;;5039429;28;19960;-61
2021/06/28 00:54:10;;;;;;;;;;;16.50;90.10;;;;;;5033394;28;19981;-60
2021/06/28 00:56:36;;;;;;;;;;;16.60;90.50;;;;;;5041390;28;19916;-61
2021/06/28 00:59:03;;;;;;;;;;;16.60;90.10;;;;;;5040373;28;19971;-60
2021/06/28 01:01:28;;;;;;;;;;;16.60;90.30;;;;;;5042366;28;19982;-61
2021/06/28 01:03:54;;;;;;;;;;;16.60;89.70;;;;;;5042002;28;19932;-61
2021/06/28 01:06:19;;;;;;;;;;;16.60;90.60;;;;;;5038256;28;20066;-60
2021/06/28 01:08:45;;;;;;;;;;;16.60;90.50;;;;;;5044175;28;19953;-60
2021/06/28 01:11:10;;;;;;;;;;;16.60;90.30;;;;;;5033862;28;20007;-61
2021/06/28 01:13:40;;;;;;;;;;;16.50;90.40;;;;;;5035094;28;19921;-61
2021/06/28 01:16:05;;;;;;;;;;;16.60;90.50;;;;;;5042017;28;19951;-61
2021/06/28 01:18:31;;;;;;;;;;;16.50;90.30;;;;;;5036961;28;19968;-60
2021/06/28 01:20:59;;;;;;;;;;;16.60;90.10;;;;;;5041544;28;20027;-62
2021/06/28 01:23:25;;;;;;;;;;;16.50;90.40;;;;;;5039314;28;20018;-61
2021/06/28 01:25:53;;;;;;;;;;;16.50;90.80;;;;;;5039075;28;19991;-60
2021/06/28 01:28:18;;;;;;;;;;;16.50;91.00;;;;;;5043122;28;19912;-60
2021/06/28 01:30:44;;;;;;;;;;;16.50;90.60;;;;;;5040566;28;19916;-62
2021/06/28 01:33:09;;;;;;;;;;;16.50;90.80;;;;;;5036452;28;20337;-61
2021/06/28 01:35:37;;;;;;;;;;;16.50;90.40;;;;;;5040357;28;20007;-61
2021/06/28 01:38:03;;;;;;;;;;;16.50;90.30;;;;;;5042056;28;19917;-61
2021/06/28 01:40:29;;;;;;;;;;;16.50;90.30;;;;;;5039366;28;19949;-61
2021/06/28 01:42:54;;;;;;;;;;;16.50;90.90;;;;;;5042912;28;19948;-62
2021/06/28 01:45:21;;;;;;;;;;;16.50;91.20;;;;;;5041703;28;19913;-62
2021/06/28 01:47:47;;;;;;;;;;;16.50;91.20;;;;;;5041374;28;19931;-62
2021/06/28 01:50:13;;;;;;;;;;;16.50;91.10;;;;;;5037259;28;19995;-61
2021/06/28 01:52:39;;;;;;;;;;;16.50;90.90;;;;;;5039326;28;20008;-61
2021/06/28 01:55:05;;;;;;;;;;;16.50;91.00;;;;;;5042508;28;19992;-61
2021/06/28 01:57:31;;;;;;;;;;;16.50;91.00;;;;;;5033213;28;19917;-61
2021/06/28 01:59:56;;;;;;;;;;;16.60;91.20;;;;;;5042030;28;19938;-60
2021/06/28 02:02:22;;;;;;;;;;;16.60;91.30;;;;;;5041875;28;20258;-60
2021/06/28 02:04:47;;;;;;;;;;;16.60;91.30;;;;;;5042934;28;19925;-61
2021/06/28 02:07:14;;;;;;;;;;;16.60;91.40;;;;;;5042525;28;19919;-61
2021/06/28 02:09:39;;;;;;;;;;;16.60;91.30;;;;;;5039399;28;19913;-61
2021/06/28 02:12:05;;;;;;;;;;;16.60;91.10;;;;;;5042082;28;20360;-61
2021/06/28 02:14:30;;;;;;;;;;;16.60;91.40;;;;;;5037476;28;20394;-60
2021/06/28 02:16:56;;;;;;;;;;;16.60;91.30;;;;;;5041217;28;19986;-62
2021/06/28 02:19:22;;;;;;;;;;;16.60;91.50;;;;;;5043839;28;20006;-61
2021/06/28 02:21:48;;;;;;;;;;;16.60;91.60;;;;;;5035260;28;20019;-61
2021/06/28 02:24:14;;;;;;;;;;;16.60;91.70;;;;;;5041791;28;19980;-60
2021/06/28 02:26:40;;;;;;;;;;;16.60;91.90;;;;;;5039894;28;20013;-62
2021/06/28 02:29:06;;;;;;;;;;;16.60;92.00;;;;;;5040285;28;20041;-62
2021/06/28 02:31:31;;;;;;;;;;;16.60;91.30;;;;;;5041447;28;20398;-60
2021/06/28 02:33:57;;;;;;;;;;;16.60;91.00;;;;;;5039672;28;19921;-61
2021/06/28 02:36:23;;;;;;;;;;;16.60;91.90;;;;;;5039063;28;20013;-61
2021/06/28 02:38:50;;;;;;;;;;;16.50;92.00;;;;;;5042853;28;19912;-61
2021/06/28 02:41:16;;;;;;;;;;;16.50;92.00;;;;;;5037513;28;20507;-61
2021/06/28 02:43:42;;;;;;;;;;;16.50;92.10;;;;;;5042385;28;19921;-62
2021/06/28 02:46:09;;;;;;;;;;;16.50;91.90;;;;;;5038183;28;19982;-62
2021/06/28 02:48:34;;;;;;;;;;;16.50;92.10;;;;;;5036489;28;19955;-62
2021/06/28 02:51:00;;;;;;;;;;;16.50;92.50;;;;;;5039363;28;20385;-61
2021/06/28 02:53:26;;;;;;;;;;;16.60;92.10;;;;;;5040656;28;20222;-61
2021/06/28 02:55:52;;;;;;;;;;;16.60;91.20;;;;;;5042038;28;19952;-61
2021/06/28 02:58:18;;;;;;;;;;;16.60;91.40;;;;;;5042982;28;20467;-61
2021/06/28 03:00:44;;;;;;;;;;;16.60;91.50;;;;;;5035452;28;20007;-61
2021/06/28 03:03:10;;;;;;;;;;;16.60;92.00;;;;;;5039061;28;20015;-61
2021/06/28 03:05:36;;;;;;;;;;;16.60;92.10;;;;;;5034422;28;20011;-62
2021/06/28 03:08:05;;;;;;;;;;;16.70;92.30;;;;;;5032538;28;21383;-61
2021/06/28 03:10:31;;;;;;;;;;;16.80;92.30;;;;;;5034209;28;19991;-61
2021/06/28 03:12:57;;;;;;;;;;;16.80;92.00;;;;;;5036969;28;20001;-61
2021/06/28 03:15:22;;;;;;;;;;;16.90;92.10;;;;;;5034056;28;20007;-61
2021/06/28 03:17:48;;;;;;;;;;;16.90;92.20;;;;;;5038180;28;19917;-61
2021/06/28 03:20:14;;;;;;;;;;;17.00;92.10;;;;;;5033609;28;19916;-60
2021/06/28 03:22:41;;;;;;;;;;;17.00;92.10;;;;;;5035825;28;19959;-61
2021/06/28 03:25:08;;;;;;;;;;;17.00;92.20;;;;;;5036510;28;20291;-61
2021/06/28 03:27:34;;;;;;;;;;;17.10;91.80;;;;;;5039220;28;19977;-61
2021/06/28 03:29:59;;;;;;;;;;;17.10;91.60;;;;;;5036785;28;20102;-60
2021/06/28 03:32:25;;;;;;;;;;;17.20;91.50;;;;;;5041836;28;20142;-61
2021/06/28 03:34:51;;;;;;;;;;;17.30;91.70;;;;;;5036616;28;19913;-60
2021/06/28 03:37:16;;;;;;;;;;;17.40;91.40;;;;;;5043927;28;19969;-61
2021/06/28 03:39:42;;;;;;;;;;;17.40;91.30;;;;;;5044521;28;20043;-60
2021/06/28 03:42:07;;;;;;;;;;;17.50;91.40;;;;;;5038740;28;19942;-62
2021/06/28 03:44:33;;;;;;;;;;;17.50;91.40;;;;;;5044672;28;19912;-61
2021/06/28 03:46:58;;;;;;;;;;;17.50;91.10;;;;;;5045817;28;19962;-62
2021/06/28 03:49:24;;;;;;;;;;;17.50;91.20;;;;;;5037596;28;19936;-62
2021/06/28 03:51:49;;;;;;;;;;;17.50;91.00;;;;;;5042401;28;19916;-59
2021/06/28 03:54:15;;;;;;;;;;;17.60;91.10;;;;;;5046172;28;19999;-60
2021/06/28 03:56:40;;;;;;;;;;;17.60;90.70;;;;;;5041857;28;21718;-59
2021/06/28 03:59:06;;;;;;;;;;;17.70;90.70;;;;;;5043955;28;20356;-61
2021/06/28 04:01:31;;;;;;;;;;;17.80;90.50;;;;;;5041367;28;20010;-60
2021/06/28 04:03:57;;;;;;;;;;;17.80;90.40;;;;;;5040024;28;19923;-62
2021/06/28 04:06:23;;;;;;;;;;;17.90;90.50;;;;;;5044869;28;20373;-61
2021/06/28 04:08:49;;;;;;;;;;;17.90;90.30;;;;;;5042130;28;19917;-60
2021/06/28 04:11:17;;;;;;;;;;;18.00;90.00;;;;;;5040195;28;20050;-59
2021/06/28 04:13:43;;;;;;;;;;;18.00;89.80;;;;;;5020825;28;19924;-60
2021/06/28 04:16:08;;;;;;;;;;;18.00;89.60;;;;;;5042297;28;20341;-60
2021/06/28 04:18:34;;;;;;;;;;;18.10;89.60;;;;;;5043820;28;19927;-61
2021/06/28 04:20:59;;;;;;;;;;;18.10;89.50;;;;;;5043366;28;19912;-60
2021/06/28 04:23:25;;;;;;;;;;;18.10;89.10;;;;;;5037797;28;19940;-62
2021/06/28 04:25:50;;;;;;;;;;;18.20;89.10;;;;;;5035845;28;19924;-62
2021/06/28 04:28:16;;;;;;;;;;;18.20;88.60;;;;;;5042469;28;20537;-60
2021/06/28 04:30:41;;;;;;;;;;;18.30;88.90;;;;;;5039847;28;19964;-62
2021/06/28 04:33:07;;;;;;;;;;;18.30;88.60;;;;;;5044756;28;19920;-61
2021/06/28 04:35:32;;;;;;;;;;;18.30;88.70;;;;;;5041429;28;19940;-61
2021/06/28 04:37:58;;;;;;;;;;;18.40;88.80;;;;;;5043788;28;20385;-61
2021/06/28 04:40:25;;;;;;;;;;;18.50;88.60;;;;;;5039254;28;20294;-60
2021/06/28 04:42:51;;;;;;;;;;;18.50;88.10;;;;;;5044509;28;19935;-60
2021/06/28 04:45:17;;;;;;;;;;;18.60;88.10;;;;;;5043134;28;20401;-60
2021/06/28 04:47:43;;;;;;;;;;;18.60;88.20;;;;;;5037485;28;19947;-60
2021/06/28 04:50:09;;;;;;;;;;;18.70;88.20;;;;;;5041681;28;20368;-62
2021/06/28 04:52:36;;;;;;;;;;;18.70;87.30;;;;;;5038973;28;19916;-61
2021/06/28 04:55:03;;;;;;;;;;;18.80;87.60;;;;;;5039887;28;19975;-62
2021/06/28 04:57:28;;;;;;;;;;;18.90;86.90;;;;;;5035986;28;19921;-60
2021/06/28 04:59:54;;;;;;;;;;;18.90;87.20;;;;;;5040371;28;19924;-60
2021/06/28 05:02:20;;;;;;;;;;;19.00;87.00;;;;;;5038851;28;19921;-60
2021/06/28 05:04:47;;;;;;;;;;;19.00;86.90;;;;;;5043046;28;19917;-61
2021/06/28 05:07:16;;;;;;;;;;;19.00;85.60;;;;;;5042016;28;20027;-61
2021/06/28 05:09:42;;;;;;;;;;;19.00;85.50;;;;;;5043772;28;20019;-61
2021/06/28 05:12:08;;;;;;;;;;;19.00;85.80;;;;;;5042437;28;19909;-62
2021/06/28 05:14:33;;;;;;;;;;;19.10;85.40;;;;;;5043804;28;20029;-61
2021/06/28 05:16:59;;;;;;;;;;;19.20;85.70;;;;;;5040231;28;19916;-62
2021/06/28 05:19:24;;;;;;;;;;;19.10;85.20;;;;;;5034500;28;19921;-62
2021/06/28 05:21:50;;;;;;;;;;;19.30;85.20;;;;;;5036979;28;19908;-60
2021/06/28 05:24:16;;;;;;;;;;;19.30;84.80;;;;;;5043417;28;19921;-61
2021/06/28 05:26:41;;;;;;;;;;;19.50;84.40;;;;;;5037714;28;20019;-61
2021/06/28 05:29:07;;;;;;;;;;;19.50;84.10;;;;;;5038612;28;19912;-61
2021/06/28 05:31:32;;;;;;;;;;;19.50;84.00;;;;;;5041554;28;20062;-62
2021/06/28 05:33:58;;;;;;;;;;;19.60;83.60;;;;;;5042978;28;20261;-62
2021/06/28 05:36:24;;;;;;;;;;;19.90;83.60;;;;;;5036887;28;19912;-61
2021/06/28 05:38:49;;;;;;;;;;;19.80;82.80;;;;;;5041914;28;19912;-61
2021/06/28 05:41:16;;;;;;;;;;;19.70;82.00;;;;;;5033999;28;19917;-61
2021/06/28 05:43:41;;;;;;;;;;;19.70;81.60;;;;;;5040714;28;19937;-61
2021/06/28 05:46:07;;;;;;;;;;;19.60;82.10;;;;;;5039166;28;20004;-61
2021/06/28 05:48:32;;;;;;;;;;;19.70;81.60;;;;;;5041579;28;20002;-61
2021/06/28 05:50:58;;;;;;;;;;;19.90;81.50;;;;;;5041430;28;19947;-61
2021/06/28 05:53:24;;;;;;;;;;;19.90;81.20;;;;;;5035337;28;19948;-60
2021/06/28 05:55:50;;;;;;;;;;;19.80;82.10;;;;;;5033232;28;20006;-60
2021/06/28 05:58:17;;;;;;;;;;;19.80;81.80;;;;;;5038354;28;20012;-61
2021/06/28 06:00:43;;;;;;;;;;;20.00;80.60;;;;;;5041533;28;19959;-59
2021/06/28 06:03:08;;;;;;;;;;;20.10;82.10;;;;;;5038567;28;20353;-60
2021/06/28 06:05:34;;;;;;;;;;;20.20;81.30;;;;;;5036891;28;19917;-62
2021/06/28 06:07:59;;;;;;;;;;;20.50;79.40;;;;;;5039512;28;20079;-61
2021/06/28 06:10:25;;;;;;;;;;;20.50;77.00;;;;;;5032553;28;19912;-69
2021/06/28 06:12:50;;;;;;;;;;;20.90;78.30;;;;;;5034241;28;19928;-69
2021/06/28 06:15:16;;;;;;;;;;;21.10;76.10;;;;;;5040885;28;20004;-69
2021/06/28 06:17:42;;;;;;;;;;;21.40;76.20;;;;;;5034504;28;19920;-69
2021/06/28 06:20:08;;;;;;;;;;;21.50;76.20;;;;;;5037998;28;19921;-70
2021/06/28 06:22:34;;;;;;;;;;;21.50;73.90;;;;;;5038072;28;19913;-69
2021/06/28 06:24:59;;;;;;;;;;;21.60;73.60;;;;;;5035914;28;19921;-70
2021/06/28 06:27:25;;;;;;;;;;;21.90;72.90;;;;;;5039829;28;19913;-70
2021/06/28 06:29:51;;;;;;;;;;;21.80;72.20;;;;;;5039043;28;19913;-69
2021/06/28 06:32:16;;;;;;;;;;;22.00;70.40;;;;;;5032062;28;19913;-69
2021/06/28 06:34:42;;;;;;;;;;;22.00;70.30;;;;;;5036640;28;20020;-69
2021/06/28 06:37:07;;;;;;;;;;;22.10;70.20;;;;;;5037375;28;20315;-70
2021/06/28 06:39:33;;;;;;;;;;;22.20;68.60;;;;;;5042522;28;19960;-70
2021/06/28 06:41:59;;;;;;;;;;;22.40;71.10;;;;;;5039718;28;20373;-69
2021/06/28 06:44:25;;;;;;;;;;;22.50;69.60;;;;;;5033264;28;19927;-69
2021/06/28 06:46:51;;;;;;;;;;;22.30;68.50;;;;;;5037211;28;19992;-69
2021/06/28 06:49:16;;;;;;;;;;;22.20;69.70;;;;;;5036606;28;20373;-69
2021/06/28 06:51:42;;;;;;;;;;;22.30;68.80;;;;;;5041161;28;19917;-69
2021/06/28 06:54:08;;;;;;;;;;;22.40;68.20;;;;;;5036990;28;19916;-69
2021/06/28 06:56:33;;;;;;;;;;;22.80;69.10;;;;;;5040575;28;19913;-68
2021/06/28 06:58:59;;;;;;;;;;;23.10;67.10;;;;;;5034508;28;20103;-69
2021/06/28 07:01:24;;;;;;;;;;;23.20;69.30;;;;;;5035367;28;19917;-70
2021/06/28 07:03:50;;;;;;;;;;;23.30;68.30;;;;;;5038080;28;19985;-70
2021/06/28 07:06:15;;;;;;;;;;;23.30;65.10;;;;;;5038804;28;19935;-69
2021/06/28 07:08:41;;;;;;;;;;;23.30;67.20;;;;;;5048102;28;20057;-70
2021/06/28 07:11:11;;;;;;;;;;;23.50;66.80;;;;;;5044815;28;20481;-70
2021/06/28 07:13:40;;;;;;;;;;;23.40;67.60;;;;;;5029915;28;19928;-70
2021/06/28 07:16:06;;;;;;;;;;;23.50;66.10;;;;;;5041430;28;19917;-69
2021/06/28 07:18:32;;;;;;;;;;;23.50;66.20;;;;;;5043154;28;19936;-70
2021/06/28 07:20:57;;;;;;;;;;;23.60;67.20;;;;;;5042661;28;19920;-70
2021/06/28 07:23:22;;;;;;;;;;;23.90;68.40;;;;;;5045806;28;20277;-69
2021/06/28 07:25:48;;;;;;;;;;;23.80;69.40;;;;;;5044131;28;20006;-69
2021/06/28 07:28:14;;;;;;;;;;;23.80;68.80;;;;;;5043762;28;20367;-70
2021/06/28 07:30:41;;;;;;;;;;;23.70;68.30;;;;;;5043482;28;19936;-69
2021/06/28 07:33:06;;;;;;;;;;;23.60;63.30;;;;;;5048909;28;20012;-70
2021/06/28 07:35:32;;;;;;;;;;;23.80;63.60;;;;;;5042730;28;20365;-69
2021/06/28 07:37:57;;;;;;;;;;;23.80;64.00;;;;;;5028477;28;20025;-69
2021/06/28 07:40:23;;;;;;;;;;;24.20;65.30;;;;;;5049100;28;19913;-69
2021/06/28 07:42:49;;;;;;;;;;;24.20;66.00;;;;;;5046617;28;20370;-68
2021/06/28 07:45:16;;;;;;;;;;;24.30;63.60;;;;;;5042637;28;20059;-69
2021/06/28 07:47:42;;;;;;;;;;;24.30;65.50;;;;;;5050535;28;20321;-70
2021/06/28 07:50:07;;;;;;;;;;;24.10;65.40;;;;;;5048075;28;19969;-70
2021/06/28 07:52:34;;;;;;;;;;;24.30;68.00;;;;;;5050657;28;19913;-68
2021/06/28 07:55:00;;;;;;;;;;;24.30;66.60;;;;;;5041780;28;20230;-70
2021/06/28 07:57:26;;;;;;;;;;;24.40;66.80;;;;;;5043894;28;20111;-69
2021/06/28 07:59:51;;;;;;;;;;;24.20;68.50;;;;;;5043119;28;20488;-70
2021/06/28 08:02:17;;;;;;;;;;;24.20;63.80;;;;;;5028393;28;20728;-69
2021/06/28 08:04:42;;;;;;;;;;;24.10;62.50;;;;;;5045005;28;19925;-70
2021/06/28 08:07:08;;;;;;;;;;;24.30;62.60;;;;;;5045563;28;19920;-70
2021/06/28 08:09:33;;;;;;;;;;;24.20;64.60;;;;;;5046636;28;19924;-70
2021/06/28 08:11:59;;;;;;;;;;;24.50;65.60;;;;;;5039199;28;19942;-70
2021/06/28 08:14:25;;;;;;;;;;;24.10;60.90;;;;;;5044514;28;19913;-70
2021/06/28 08:16:51;;;;;;;;;;;24.20;62.30;;;;;;5046516;28;20400;-68
2021/06/28 08:19:16;;;;;;;;;;;24.40;65.00;;;;;;5038504;28;19922;-69
2021/06/28 08:21:42;;;;;;;;;;;24.50;60.10;;;;;;5041330;28;19913;-70
2021/06/28 08:24:09;;;;;;;;;;;24.70;62.00;;;;;;5044131;28;19968;-69
2021/06/28 08:26:35;;;;;;;;;;;25.10;58.80;;;;;;5042992;28;19921;-70
2021/06/28 08:29:03;;;;;;;;;;;25.10;59.90;;;;;;5033938;28;19920;-70
2021/06/28 08:31:29;;;;;;;;;;;25.50;60.90;;;;;;5021210;28;19949;-69
2021/06/28 08:33:55;;;;;;;;;;;25.30;56.60;;;;;;5037920;28;19920;-69
2021/06/28 08:36:20;;;;;;;;;;;25.50;59.80;;;;;;5043893;28;19912;-69
2021/06/28 08:38:46;;;;;;;;;;;25.40;57.50;;;;;;5042544;28;19932;-70
2021/06/28 08:41:16;;;;;;;;;;;25.30;56.60;;;;;;5040944;28;19913;-70
2021/06/28 08:43:45;;;;;;;;;;;25.20;60.70;;;;;;5037817;28;19931;-70
2021/06/28 08:46:14;;;;;;;;;;;25.50;61.10;;;;;;5040392;28;20259;-70
2021/06/28 08:48:40;;;;;;;;;;;25.10;58.90;;;;;;5039318;28;19992;-70
2021/06/28 08:51:05;;;;;;;;;;;25.10;56.60;;;;;;5043122;28;20011;-70
2021/06/28 08:53:31;;;;;;;;;;;25.80;56.70;;;;;;5041829;28;19917;-70
2021/06/28 08:55:57;;;;;;;;;;;25.50;57.80;;;;;;5041762;28;19983;-70
2021/06/28 08:58:22;;;;;;;;;;;26.20;55.30;;;;;;5043908;28;20044;-70
2021/06/28 09:00:48;;;;;;;;;;;26.60;58.40;;;;;;5037755;28;20008;-71
2021/06/28 09:03:14;;;;;;;;;;;27.20;54.80;;;;;;5042907;28;19928;-70
2021/06/28 09:05:50;;;;;;;;;;;27.40;55.40;;;;;;5042812;28;20118;-69
2021/06/28 09:08:17;;;;;;;;;;;27.50;51.60;;;;;;5037121;28;19929;-69
2021/06/28 09:10:43;;;;;;;;;;;27.40;54.20;;;;;;5041406;28;19924;-69
2021/06/28 09:13:09;;;;;;;;;;;27.70;53.90;;;;;;5033596;28;19917;-71
2021/06/28 09:15:40;;;;;;;;;;;27.50;48.50;;;;;;5039700;28;20392;-70
2021/06/28 09:18:16;;;;;;;;;;;27.60;51.30;;;;;;5035121;28;19921;-70
2021/06/28 09:20:42;;;;;;;;;;;27.50;51.90;;;;;;5038600;28;19920;-70
2021/06/28 09:23:18;;;;;;;;;;;27.50;50.40;;;;;;5042631;28;20245;-70
2021/06/28 09:25:44;;;;;;;;;;;28.20;52.00;;;;;;5045488;28;19923;-70
2021/06/28 09:28:09;;;;;;;;;;;28.20;49.00;;;;;;5041150;28;20015;-71
2021/06/28 09:30:54;;;;;;;;;;;28.40;49.30;;;;;;5043561;28;20445;-70
2021/06/28 09:33:20;;;;;;;;;;;28.40;50.10;;;;;;5039693;28;20000;-70
2021/06/28 09:35:46;;;;;;;;;;;28.20;48.30;;;;;;5035720;28;19916;-70
2021/06/28 09:38:30;;;;;;;;;;;28.50;51.40;;;;;;5038211;28;19917;-70
2021/06/28 09:40:56;;;;;;;;;;;28.20;49.30;;;;;;5029873;28;19921;-69
2021/06/28 09:43:25;;;;;;;;;;;28.20;51.60;;;;;;5043955;28;20408;-68
2021/06/28 09:45:55;;;;;;;;;;;28.60;50.80;;;;;;5043913;28;19913;-69
2021/06/28 09:48:24;;;;;;;;;;;28.50;47.90;;;;;;5021144;28;19913;-70
2021/06/28 09:50:50;;;;;;;;;;;28.70;48.30;;;;;;5042816;28;19982;-70
2021/06/28 09:53:25;;;;;;;;;;;29.00;47.50;;;;;;5043144;28;19924;-70
2021/06/28 09:55:50;;;;;;;;;;;29.00;46.60;;;;;;5041803;28;20280;-70
2021/06/28 09:58:22;;;;;;;;;;;28.90;45.70;;;;;;5035792;28;19917;-69
2021/06/28 10:00:48;;;;;;;;;;;29.40;46.50;;;;;;5038111;28;19913;-71
2021/06/28 10:03:50;;;;;;;;;;;29.00;44.90;;;;;;5034125;28;19921;-70
2021/06/28 10:08:50;;;;;;;;;;;29.70;43.40;;;;;;5034637;28;19998;-70
2021/06/28 10:11:26;;;;;;;;;;;30.50;46.50;;;;;;5023738;28;20274;-70
2021/06/28 10:13:53;;;;;;;;;;;30.00;42.70;;;;;;5032839;28;19913;-70
2021/06/28 10:16:21;;;;;;;;;;;30.00;40.70;;;;;;5033762;28;19969;-70
2021/06/28 10:18:47;;;;;;;;;;;31.00;41.70;;;;;;5041174;28;19921;-71
2021/06/28 10:21:13;;;;;;;;;;;31.10;38.30;;;;;;5038024;28;20004;-69
2021/06/28 10:23:39;;;;;;;;;;;31.30;37.00;;;;;;5040821;28;20321;-70
2021/06/28 10:26:06;;;;;;;;;;;31.40;39.50;;;;;;5020346;28;19921;-71
2021/06/28 10:28:36;;;;;;;;;;;30.70;36.20;;;;;;5023918;28;19985;-72
2021/06/28 10:31:02;;;;;;;;;;;31.40;42.00;;;;;;5015680;28;19929;-70
2021/06/28 10:33:28;;;;;;;;;;;31.40;37.20;;;;;;5034879;28;19932;-71
2021/06/28 10:36:02;;;;;;;;;;;31.70;37.80;;;;;;5036933;28;19916;-70
2021/06/28 10:38:45;;;;;;;;;;;30.90;36.80;;;;;;5015845;28;19924;-71
2021/06/28 10:41:11;;;;;;;;;;;30.90;36.90;;;;;;5034810;28;19928;-71
2021/06/28 10:43:37;;;;;;;;;;;31.20;38.70;;;;;;5032403;28;20413;-71
2021/06/28 10:46:05;;;;;;;;;;;31.10;38.90;;;;;;5034704;28;20380;-71
2021/06/28 10:48:43;;;;;;;;;;;31.00;36.30;;;;;;5006631;28;19917;-71
2021/06/28 10:51:08;;;;;;;;;;;31.10;39.20;;;;;;5031542;28;20380;-71
2021/06/28 10:53:34;;;;;;;;;;;31.40;35.70;;;;;;5033105;28;19917;-71
2021/06/28 10:58:54;;;;;;;;;;;31.30;37.00;;;;;;5035989;28;20474;-71
2021/06/28 11:01:32;;;;;;;;;;;30.90;37.80;;;;;;5035403;28;19913;-71
2021/06/28 11:04:05;;;;;;;;;;;31.50;39.50;;;;;;5037661;28;19935;-71
2021/06/28 11:06:31;;;;;;;;;;;31.60;36.30;;;;;;5036769;28;21482;-71
2021/06/28 11:08:59;;;;;;;;;;;31.90;37.40;;;;;;5035341;28;19982;-72
2021/06/28 11:11:45;;;;;;;;;;;31.40;35.80;;;;;;5048185;28;20366;-71
2021/06/28 11:14:20;;;;;;;;;;;31.40;38.40;;;;;;5049105;28;19984;-70
2021/06/28 11:16:57;;;;;;;;;;;30.40;36.40;;;;;;5039546;28;19997;-71
2021/06/28 11:19:42;;;;;;;;;;;31.20;38.20;;;;;;5035253;28;20334;-71
2021/06/28 11:22:27;;;;;;;;;;;31.00;39.30;;;;;;5033368;28;19931;-72
2021/06/28 11:25:12;;;;;;;;;;;31.30;39.90;;;;;;5036085;28;19993;-72
2021/06/28 11:27:39;;;;;;;;;;;31.80;36.80;;;;;;5040780;28;20403;-71
2021/06/28 11:30:16;;;;;;;;;;;31.30;36.10;;;;;;5038070;28;19921;-71
2021/06/28 11:32:58;;;;;;;;;;;31.40;38.40;;;;;;5039588;28;20028;-72
2021/06/28 11:35:36;;;;;;;;;;;31.80;35.10;;;;;;5021145;28;19978;-71
2021/06/28 11:38:20;;;;;;;;;;;30.90;35.70;;;;;;5035081;28;21478;-71
2021/06/28 11:40:53;;;;;;;;;;;31.70;35.70;;;;;;5036578;28;19921;-70
2021/06/28 11:43:35;;;;;;;;;;;31.70;33.80;;;;;;5041958;28;20087;-71
2021/06/28 11:46:01;;;;;;;;;;;32.20;34.40;;;;;;5037703;28;19909;-72
2021/06/28 11:48:31;;;;;;;;;;;32.00;34.40;;;;;;5031340;28;20054;-71
2021/06/28 11:50:57;;;;;;;;;;;32.30;33.90;;;;;;5021313;28;19940;-71
2021/06/28 11:53:22;;;;;;;;;;;33.00;36.00;;;;;;5032082;28;19983;-71
2021/06/28 11:55:49;;;;;;;;;;;32.80;35.20;;;;;;5009170;28;19916;-72
2021/06/28 11:58:15;;;;;;;;;;;33.10;34.30;;;;;;5034376;28;19917;-71
2021/06/28 12:00:41;;;;;;;;;;;33.60;34.90;;;;;;5040899;28;19913;-71
2021/06/28 12:03:09;;;;;;;;;;;34.20;32.60;;;;;;5039560;28;20250;-71
2021/06/28 12:05:35;;;;;;;;;;;34.60;33.10;;;;;;5037501;28;19997;-72
2021/06/28 12:08:01;;;;;;;;;;;33.70;34.80;;;;;;5057397;28;20389;-71
2021/06/28 12:10:26;;;;;;;;;;;34.10;33.30;;;;;;5039639;28;20389;-71
2021/06/28 12:12:59;;;;;;;;;;;34.00;33.70;;;;;;5041947;28;19962;-71
2021/06/28 12:15:25;;;;;;;;;;;33.50;32.60;;;;;;5036819;28;19924;-70
2021/06/28 12:17:51;;;;;;;;;;;34.10;31.00;;;;;;5040950;28;20000;-71
2021/06/28 12:20:19;;;;;;;;;;;33.80;33.30;;;;;;5044388;28;20085;-72
2021/06/28 12:22:48;;;;;;;;;;;34.00;31.00;;;;;;5043315;28;20398;-71
2021/06/28 12:25:15;;;;;;;;;;;33.80;32.60;;;;;;5024578;28;19947;-71
2021/06/28 12:27:45;;;;;;;;;;;34.00;30.90;;;;;;5032937;28;19932;-72
2021/06/28 12:30:13;;;;;;;;;;;34.10;34.30;;;;;;5041957;28;19919;-71
2021/06/28 12:32:43;;;;;;;;;;;32.80;34.00;;;;;;5038965;28;20016;-71
2021/06/28 12:35:10;;;;;;;;;;;33.00;36.00;;;;;;5036319;28;20262;-71
2021/06/28 12:37:39;;;;;;;;;;;33.20;34.70;;;;;;5038396;28;20406;-71
2021/06/28 12:40:28;;;;;;;;;;;33.80;33.60;;;;;;5041435;28;20425;-71
2021/06/28 12:43:04;;;;;;;;;;;34.40;34.50;;;;;;5040301;28;20031;-70
2021/06/28 12:45:31;;;;;;;;;;;34.20;33.20;;;;;;5023567;28;19979;-71
2021/06/28 12:47:58;;;;;;;;;;;33.90;33.60;;;;;;5036818;28;19917;-71
2021/06/28 12:50:24;;;;;;;;;;;32.40;36.30;;;;;;5033311;28;19933;-71
2021/06/28 12:52:56;;;;;;;;;;;32.40;36.30;;;;;;5040675;28;20210;-70
2021/06/28 12:55:26;;;;;;;;;;;33.20;38.60;;;;;;5046509;28;19935;-71
2021/06/28 12:58:04;;;;;;;;;;;34.30;32.60;;;;;;5040980;28;20385;-71
2021/06/28 13:00:30;;;;;;;;;;;34.90;33.30;;;;;;5034055;28;19947;-72
2021/06/28 13:02:58;;;;;;;;;;;34.60;33.10;;;;;;5021693;28;19927;-72
2021/06/28 13:05:34;;;;;;;;;;;33.30;34.30;;;;;;5040009;28;19993;-71
2021/06/28 13:08:12;;;;;;;;;;;32.30;34.50;;;;;;5039842;28;19920;-71
2021/06/28 13:10:38;;;;;;;;;;;32.20;35.50;;;;;;5048885;28;19982;-71
2021/06/28 13:13:23;;;;;;;;;;;33.00;35.40;;;;;;5037725;28;20016;-70
2021/06/28 13:16:03;;;;;;;;;;;33.50;33.60;;;;;;5041298;28;19913;-71
2021/06/28 13:18:29;;;;;;;;;;;33.50;35.00;;;;;;5035257;28;20349;-72
2021/06/28 13:20:54;;;;;;;;;;;34.40;32.00;;;;;;5020166;28;19935;-70
2021/06/28 13:23:23;;;;;;;;;;;34.80;30.30;;;;;;5036859;28;19917;-70
2021/06/28 13:25:49;;;;;;;;;;;34.60;32.60;;;;;;5039534;28;19959;-71
2021/06/28 13:28:14;;;;;;;;;;;35.20;29.30;;;;;;5041118;28;19913;-71
2021/06/28 13:30:41;;;;;;;;;;;35.40;30.80;;;;;;5020462;28;20012;-71
2021/06/28 13:33:13;;;;;;;;;;;35.70;30.50;;;;;;5039024;28;20022;-71
2021/06/28 13:35:42;;;;;;;;;;;36.10;29.10;;;;;;5018102;28;19917;-71
2021/06/28 13:38:17;;;;;;;;;;;35.90;28.70;;;;;;5022585;28;19917;-71
2021/06/28 13:40:44;;;;;;;;;;;36.30;29.70;;;;;;5040594;28;19913;-70
2021/06/28 13:43:17;;;;;;;;;;;36.90;29.20;;;;;;5035783;28;19917;-71
2021/06/28 13:45:43;;;;;;;;;;;35.90;30.00;;;;;;5039523;28;19913;-69
2021/06/28 13:48:10;;;;;;;;;;;36.60;31.90;;;;;;5024490;28;19921;-71
2021/06/28 13:50:40;;;;;;;;;;;37.10;28.50;;;;;;5038652;28;19924;-71
2021/06/28 13:53:15;;;;;;;;;;;36.00;29.90;;;;;;5038002;28;19978;-71
2021/06/28 13:55:42;;;;;;;;;;;36.60;29.20;;;;;;5041726;28;19909;-71
2021/06/28 13:58:08;;;;;;;;;;;35.50;29.50;;;;;;5035709;28;19916;-71
2021/06/28 14:00:41;;;;;;;;;;;36.40;30.30;;;;;;5040882;28;19969;-71
2021/06/28 14:03:07;;;;;;;;;;;36.20;29.70;;;;;;5039661;28;19936;-71
2021/06/28 14:05:33;;;;;;;;;;;36.70;26.80;;;;;;5038609;28;19932;-71
2021/06/28 14:07:59;;;;;;;;;;;37.00;29.60;;;;;;5034905;28;20334;-71
2021/06/28 14:10:24;;;;;;;;;;;36.40;30.70;;;;;;5040117;28;19921;-71
2021/06/28 14:12:50;;;;;;;;;;;36.90;28.00;;;;;;5037156;28;19925;-71
2021/06/28 14:15:16;;;;;;;;;;;37.90;27.10;;;;;;5032489;28;20162;-71
2021/06/28 14:17:42;;;;;;;;;;;37.50;28.00;;;;;;5018023;28;19950;-71
2021/06/28 14:20:09;;;;;;;;;;;37.40;28.10;;;;;;5034355;28;19992;-71
2021/06/28 14:22:35;;;;;;;;;;;37.20;29.00;;;;;;5038269;28;20413;-72